createdAt,value
2023-03-21T06:03:07.697Z,0.50
2023-03-21T06:04:08.738Z,0.50
2023-03-21T06:05:08.722Z,0.50
2023-03-21T06:06:08.755Z,0.50
2023-03-21T06:07:08.756Z,0.50
2023-03-21T06:08:08.816Z,0.50
2023-03-21T06:09:08.839Z,0.34
2023-03-21T06:10:08.872Z,0.34
2023-03-21T06:11:08.906Z,0.34
2023-03-21T06:12:08.929Z,0.34
2023-03-21T06:13:08.921Z,0.34
2023-03-21T06:14:08.905Z,0.34
2023-03-21T06:15:09.005Z,0.34
2023-03-21T06:16:08.970Z,0.34
2023-03-21T06:17:08.952Z,0.34
2023-03-21T06:18:09.020Z,0.34
2023-03-21T06:19:09.097Z,0.34
2023-03-21T06:20:09.119Z,0.34
2023-03-21T06:21:09.192Z,0.34
2023-03-21T06:22:09.257Z,0.38
2023-03-21T06:23:09.302Z,0.44
2023-03-21T06:24:09.374Z,0.50
2023-03-21T06:25:09.444Z,0.51
2023-03-21T06:26:09.492Z,0.50
2023-03-21T06:27:09.547Z,0.50
2023-03-21T06:28:09.599Z,0.50
2023-03-21T06:29:09.660Z,0.50
2023-03-21T06:30:09.720Z,0.50
2023-03-21T06:31:09.808Z,0.50
2023-03-21T06:32:09.833Z,0.50
2023-03-21T06:33:09.898Z,0.51
2023-03-21T06:34:09.946Z,0.50
2023-03-21T06:35:10.049Z,0.50
2023-03-21T06:36:09.090Z,0.50
2023-03-21T06:37:10.109Z,0.50
2023-03-21T06:38:10.153Z,0.50
2023-03-21T06:39:10.195Z,0.50
2023-03-21T06:40:10.237Z,0.50
2023-03-21T06:41:10.286Z,0.50
2023-03-21T06:42:10.330Z,0.50
2023-03-21T06:43:10.384Z,0.50
2023-03-21T06:44:10.408Z,0.50
2023-03-21T06:45:10.480Z,0.51
2023-03-21T06:46:10.505Z,0.51
2023-03-21T06:47:10.565Z,0.51
2023-03-21T06:48:10.660Z,0.51
2023-03-21T06:49:10.686Z,0.51
2023-03-21T06:50:10.780Z,0.52
2023-03-21T06:51:10.813Z,0.50
2023-03-21T06:52:10.824Z,0.52
2023-03-21T06:53:10.904Z,0.51
2023-03-21T06:54:11.365Z,0.51
2023-03-21T06:55:11.003Z,0.51
2023-03-21T06:56:11.078Z,0.51
2023-03-21T06:57:11.138Z,0.51
2023-03-21T06:58:11.209Z,0.50
2023-03-21T06:59:11.226Z,0.51
2023-03-21T07:00:11.289Z,0.51
2023-03-21T07:01:11.447Z,0.51
2023-03-21T07:02:11.510Z,0.52
2023-03-21T07:03:11.572Z,0.51
2023-03-21T07:04:11.570Z,0.51
2023-03-21T07:05:11.564Z,0.51
2023-03-21T07:06:11.658Z,0.50
2023-03-21T07:07:11.691Z,0.50
2023-03-21T07:08:10.743Z,0.50
2023-03-21T07:09:11.791Z,0.52
2023-03-21T07:10:11.871Z,0.51
2023-03-21T07:11:11.920Z,0.51
2023-03-21T07:12:11.972Z,0.51
2023-03-21T07:13:11.093Z,0.51
2023-03-21T07:14:12.097Z,0.51
2023-03-21T07:15:12.165Z,0.51
2023-03-21T07:16:12.274Z,0.51
2023-03-21T07:17:12.260Z,0.50
2023-03-21T07:18:11.322Z,0.51
2023-03-21T07:19:12.882Z,0.51
2023-03-21T07:20:11.446Z,0.51
2023-03-21T07:21:12.501Z,0.51
2023-03-21T07:22:11.559Z,0.51
2023-03-21T07:23:12.638Z,0.50
2023-03-21T07:24:11.670Z,0.51
2023-03-21T07:25:11.865Z,0.51
2023-03-21T07:26:12.787Z,0.51
2023-03-21T07:27:12.846Z,0.51
2023-03-21T07:28:12.921Z,0.52
2023-03-21T07:29:12.981Z,0.52
2023-03-21T07:30:13.044Z,0.51
2023-03-21T07:31:13.135Z,0.51
2023-03-21T07:32:13.162Z,0.50
2023-03-21T07:33:12.227Z,0.51
2023-03-21T07:34:13.287Z,0.51
2023-03-21T07:35:13.339Z,0.52
2023-03-21T07:36:13.426Z,0.51
2023-03-21T07:37:12.456Z,0.51
2023-03-21T07:38:13.523Z,0.50
2023-03-21T07:39:13.593Z,0.51
2023-03-21T07:40:13.623Z,0.51
2023-03-21T07:41:13.662Z,0.52
2023-03-21T07:42:12.744Z,0.50
2023-03-21T07:43:12.807Z,0.50
2023-03-21T07:44:13.859Z,0.52
2023-03-21T07:45:13.914Z,0.51
2023-03-21T07:46:13.971Z,0.51
2023-03-21T07:47:14.017Z,0.51
2023-03-21T07:48:14.113Z,0.51
2023-03-21T07:49:14.128Z,0.51
2023-03-21T07:50:13.239Z,0.51
2023-03-21T07:51:14.235Z,0.50
2023-03-21T07:52:14.300Z,0.50
2023-03-21T07:53:14.349Z,0.51
2023-03-21T07:54:14.399Z,0.50
2023-03-21T07:55:13.928Z,0.52
2023-03-21T07:56:13.528Z,0.52
2023-03-21T07:57:14.583Z,0.51
2023-03-21T07:58:14.642Z,0.51
2023-03-21T07:59:13.690Z,0.51
2023-03-21T08:00:14.745Z,0.51
2023-03-21T08:01:14.798Z,0.51
2023-03-21T08:04:14.985Z,0.52
2023-03-21T08:05:15.019Z,0.51
2023-03-21T08:06:14.073Z,0.51
2023-03-21T08:07:15.133Z,0.51
2023-03-21T08:08:15.185Z,0.52
2023-03-21T08:09:14.231Z,0.51
2023-03-21T08:10:15.327Z,0.51
2023-03-21T08:11:15.334Z,0.51
2023-03-21T08:12:15.396Z,0.51
2023-03-21T08:13:15.448Z,0.52
2023-03-21T08:14:15.493Z,0.52
2023-03-21T08:15:15.585Z,0.51
2023-03-21T08:16:15.695Z,0.53
2023-03-21T08:17:15.638Z,0.52
2023-03-21T08:18:15.682Z,0.53
2023-03-21T08:19:15.739Z,0.53
2023-03-21T08:20:15.789Z,0.52
2023-03-21T08:21:15.834Z,0.52
2023-03-21T08:22:15.874Z,0.53
2023-03-21T08:23:15.901Z,0.53
2023-03-21T08:24:15.960Z,0.52
2023-03-21T08:25:15.020Z,0.53
2023-03-21T08:26:15.071Z,0.54
2023-03-21T08:27:16.098Z,0.54
2023-03-21T08:28:16.137Z,0.54
2023-03-21T08:29:15.184Z,0.58
2023-03-21T08:30:16.207Z,0.58
2023-03-21T08:31:15.347Z,0.56
2023-03-21T08:32:16.301Z,0.57
2023-03-21T08:33:15.344Z,0.57
2023-03-21T08:34:16.400Z,0.55
2023-03-21T08:35:15.423Z,0.56
2023-03-21T08:36:16.464Z,0.55
2023-03-21T08:37:16.497Z,0.55
2023-03-21T08:38:15.564Z,0.56
2023-03-21T08:39:16.596Z,0.55
2023-03-21T08:40:15.640Z,0.56
2023-03-21T08:41:16.633Z,0.55
2023-03-21T08:42:16.688Z,0.55
2023-03-21T08:43:15.706Z,0.56
2023-03-21T08:44:16.735Z,0.56
2023-03-21T08:45:16.910Z,0.56
2023-03-21T08:46:15.891Z,0.56
2023-03-21T08:47:16.875Z,0.55
2023-03-21T08:48:16.957Z,0.56
2023-03-21T08:49:16.943Z,0.55
2023-03-21T08:50:17.413Z,0.55
2023-03-21T08:51:17.035Z,0.53
2023-03-21T08:52:16.073Z,0.51
2023-03-21T08:53:16.123Z,0.51
2023-03-21T08:54:16.161Z,0.50
2023-03-21T08:55:17.235Z,0.50
2023-03-21T08:56:16.258Z,0.50
2023-03-21T08:57:16.374Z,0.50
2023-03-21T08:58:16.304Z,0.50
2023-03-21T08:59:17.320Z,0.50
2023-03-21T09:00:16.373Z,0.51
2023-03-21T09:01:17.406Z,0.52
2023-03-21T09:02:17.471Z,0.50
2023-03-21T09:03:17.463Z,0.51
2023-03-21T09:04:16.529Z,0.51
2023-03-21T09:05:17.549Z,0.50
2023-03-21T09:06:16.578Z,0.52
2023-03-21T09:07:17.625Z,0.52
2023-03-21T09:08:17.662Z,0.50
2023-03-21T09:09:17.699Z,0.51
2023-03-21T09:12:16.811Z,0.52
2023-03-21T09:13:17.862Z,0.51
2023-03-21T09:14:19.215Z,0.51
2023-03-21T09:15:18.002Z,0.51
2023-03-21T09:16:17.064Z,0.51
2023-03-21T09:17:18.021Z,0.51
2023-03-21T09:20:20.182Z,0.52
2023-03-21T09:21:17.060Z,0.52
2023-03-21T09:25:18.051Z,0.55
2023-03-21T09:26:18.006Z,0.55
2023-03-21T09:27:18.003Z,0.54
2023-03-21T09:28:18.006Z,0.54
2023-03-21T09:29:16.987Z,0.55
2023-03-21T09:30:18.031Z,0.57
2023-03-21T09:32:17.964Z,0.56
2023-03-21T09:33:17.947Z,0.56
2023-03-21T09:34:17.951Z,0.56
2023-03-21T09:35:17.939Z,0.56
2023-03-21T09:36:18.003Z,0.56
2023-03-21T09:37:17.915Z,0.64
2023-03-21T09:38:17.921Z,0.63
2023-03-21T09:39:16.899Z,0.60
2023-03-21T09:40:17.923Z,0.57
2023-03-21T09:41:17.898Z,0.59
2023-03-21T09:42:17.885Z,0.59
2023-03-21T09:43:16.893Z,0.59
2023-03-21T09:44:17.869Z,0.57
2023-03-21T09:45:17.882Z,0.56
2023-03-21T09:46:16.973Z,0.56
2023-03-21T09:47:17.911Z,0.55
2023-03-21T09:48:17.916Z,0.54
2023-03-21T09:49:17.828Z,0.54
2023-03-21T09:50:17.865Z,0.55
2023-03-21T09:51:16.910Z,0.55
2023-03-21T09:52:17.835Z,0.56
2023-03-21T09:53:17.823Z,0.56
2023-03-21T09:54:17.823Z,0.57
2023-03-21T09:55:16.800Z,0.56
2023-03-21T09:56:16.963Z,0.56
2023-03-21T09:57:17.778Z,0.57
2023-03-21T09:58:16.773Z,0.57
2023-03-21T09:59:17.766Z,0.58
2023-03-21T10:00:17.747Z,0.59
2023-03-21T10:01:17.758Z,0.59
2023-03-21T10:02:16.752Z,0.59
2023-03-21T10:03:17.738Z,0.60
2023-03-21T10:04:17.767Z,0.60
2023-03-21T10:05:17.750Z,0.59
2023-03-21T10:06:16.719Z,0.58
2023-03-21T10:07:17.706Z,0.59
2023-03-21T10:08:18.379Z,0.58
2023-03-21T10:09:16.692Z,0.58
2023-03-21T10:10:17.681Z,0.59
2023-03-21T10:11:16.666Z,0.60
2023-03-21T10:12:17.663Z,0.59
2023-03-21T10:13:16.670Z,0.60
2023-03-21T10:14:17.671Z,0.59
2023-03-21T10:15:17.667Z,0.58
2023-03-21T10:16:17.860Z,0.60
2023-03-21T10:17:16.627Z,0.59
2023-03-21T10:18:16.649Z,0.60
2023-03-21T10:19:17.613Z,0.60
2023-03-21T10:21:37.200Z,0.60
2023-03-21T10:23:17.590Z,0.60
2023-03-21T10:24:17.568Z,0.60
2023-03-21T10:25:17.564Z,0.61
2023-03-21T10:28:17.541Z,0.59
2023-03-21T10:29:17.559Z,0.60
2023-03-21T10:30:16.538Z,0.60
2023-03-21T10:31:17.558Z,0.59
2023-03-21T10:32:17.522Z,0.59
2023-03-21T10:33:17.519Z,0.56
2023-03-21T10:34:16.519Z,0.56
2023-03-21T10:39:17.479Z,0.50
2023-03-21T10:40:17.456Z,0.50
2023-03-21T10:41:17.950Z,0.52
2023-03-21T10:42:17.468Z,0.52
2023-03-21T10:43:17.436Z,0.52
2023-03-21T10:44:17.436Z,0.52
2023-03-21T10:45:16.427Z,0.52
2023-03-21T10:46:17.634Z,0.51
2023-03-21T10:47:16.712Z,0.50
2023-03-21T10:48:17.606Z,0.50
2023-03-21T10:49:17.403Z,0.51
2023-03-21T10:50:16.509Z,0.50
2023-03-21T10:51:17.437Z,0.51
2023-03-21T10:52:17.368Z,0.51
2023-03-21T10:53:17.359Z,0.51
2023-03-21T10:54:17.361Z,0.51
2023-03-21T10:55:17.362Z,0.53
2023-03-21T10:56:17.357Z,0.51
2023-03-21T10:57:17.339Z,0.51
2023-03-21T10:58:17.348Z,0.50
2023-03-21T10:59:18.874Z,0.50
2023-03-21T11:00:17.352Z,0.50
2023-03-21T11:01:17.382Z,0.50
2023-03-21T11:02:17.336Z,0.50
2023-03-21T11:03:17.309Z,0.50
2023-03-21T11:04:17.307Z,0.50
2023-03-21T11:05:16.297Z,0.50
2023-03-21T11:06:17.337Z,0.52
2023-03-21T11:07:17.289Z,0.53
2023-03-21T11:08:17.283Z,0.53
2023-03-21T11:09:17.321Z,0.53
2023-03-21T11:10:28.009Z,0.53
2023-03-21T11:11:18.261Z,0.53
2023-03-21T11:12:16.268Z,0.53
2023-03-21T11:13:17.284Z,0.53
2023-03-21T11:14:17.267Z,0.52
2023-03-21T11:15:17.275Z,0.53
2023-03-21T11:16:17.325Z,0.52
2023-03-21T11:17:17.334Z,0.53
2023-03-21T11:18:17.334Z,0.53
2023-03-21T11:19:17.387Z,0.54
2023-03-21T11:20:17.441Z,0.54
2023-03-21T11:21:17.433Z,0.54
2023-03-21T11:22:17.485Z,0.55
2023-03-21T11:23:20.065Z,0.55
2023-03-21T11:24:17.471Z,0.55
2023-03-21T11:25:17.474Z,0.55
2023-03-21T11:26:16.461Z,0.56
2023-03-21T11:27:17.455Z,0.57
2023-03-21T11:28:17.452Z,0.60
2023-03-21T11:29:17.815Z,0.61
2023-03-21T11:30:17.461Z,0.61
2023-03-21T11:31:16.457Z,0.61
2023-03-21T11:32:17.424Z,0.62
2023-03-21T11:33:17.404Z,0.61
2023-03-21T11:34:17.390Z,0.61
2023-03-21T11:35:19.658Z,0.61
2023-03-21T11:36:17.466Z,0.62
2023-03-21T11:37:17.386Z,0.62
2023-03-21T11:38:17.392Z,0.61
2023-03-21T11:39:17.356Z,0.62
2023-03-21T11:40:17.347Z,0.61
2023-03-21T11:41:18.409Z,0.62
2023-03-21T11:42:17.476Z,0.63
2023-03-21T11:43:16.334Z,0.61
2023-03-21T11:44:17.329Z,0.61
2023-03-21T11:45:17.324Z,0.61
2023-03-21T11:46:17.394Z,0.61
2023-03-21T11:47:17.485Z,0.60
2023-03-21T11:48:17.374Z,0.60
2023-03-21T11:49:17.318Z,0.61
2023-03-21T11:50:16.289Z,0.60
2023-03-21T11:51:17.283Z,0.59
2023-03-21T11:52:17.472Z,0.57
2023-03-21T11:53:17.323Z,0.59
2023-03-21T11:54:17.412Z,0.59
2023-03-21T11:55:17.401Z,0.60
2023-03-21T11:56:17.442Z,0.60
2023-03-21T11:57:16.487Z,0.60
2023-03-21T11:58:16.527Z,0.61
2023-03-21T11:59:16.551Z,0.62
2023-03-21T12:00:17.588Z,0.63
2023-03-21T12:01:16.629Z,0.63
2023-03-21T12:02:17.729Z,0.62
2023-03-21T12:03:17.686Z,0.64
2023-03-21T12:04:17.857Z,0.64
2023-03-21T12:05:17.765Z,0.65
2023-03-21T12:06:17.811Z,0.65
2023-03-21T12:07:17.830Z,0.65
2023-03-21T12:08:17.865Z,0.65
2023-03-21T12:09:18.624Z,0.67
2023-03-21T12:10:17.961Z,0.67
2023-03-21T12:11:17.967Z,0.68
2023-03-21T12:12:22.014Z,0.68
2023-03-21T12:13:17.990Z,0.69
2023-03-21T12:14:17.989Z,0.69
2023-03-21T12:15:17.969Z,0.70
2023-03-21T12:16:18.027Z,0.72
2023-03-21T12:17:17.983Z,0.74
2023-03-21T12:18:16.962Z,0.74
2023-03-21T12:19:17.955Z,0.75
2023-03-21T12:20:16.946Z,0.75
2023-03-21T12:21:17.942Z,0.77
2023-03-21T12:22:17.947Z,0.75
2023-03-21T12:23:17.979Z,0.77
2023-03-21T12:24:17.922Z,0.77
2023-03-21T12:25:17.913Z,0.79
2023-03-21T12:26:17.935Z,0.78
2023-03-21T12:27:17.913Z,0.78
2023-03-21T12:28:30.120Z,0.79
2023-03-21T12:29:17.907Z,0.79
2023-03-21T12:30:17.886Z,0.80
2023-03-21T12:31:17.944Z,0.80
2023-03-21T12:32:17.871Z,0.80
2023-03-21T12:33:17.846Z,0.82
2023-03-21T12:34:17.854Z,0.82
2023-03-21T12:35:17.851Z,0.82
2023-03-21T12:36:17.933Z,0.84
2023-03-21T12:37:17.008Z,0.83
2023-03-21T12:38:16.844Z,0.83
2023-03-21T12:39:17.820Z,0.83
2023-03-21T12:40:17.795Z,0.84
2023-03-21T12:41:16.818Z,0.85
2023-03-21T12:42:18.149Z,0.84
2023-03-21T12:43:17.772Z,0.85
2023-03-21T12:44:17.777Z,0.85
2023-03-21T12:45:17.754Z,0.83
2023-03-21T12:46:17.819Z,0.84
2023-03-21T12:47:17.775Z,0.85
2023-03-21T12:48:17.774Z,0.84
2023-03-21T12:49:17.738Z,0.83
2023-03-21T12:50:17.735Z,0.82
2023-03-21T12:52:17.722Z,0.81
2023-03-21T12:53:17.698Z,0.81
2023-03-21T12:54:17.696Z,0.81
2023-03-21T12:55:17.697Z,0.80
2023-03-21T12:56:17.673Z,0.79
2023-03-21T12:57:17.684Z,0.80
2023-03-21T12:58:17.797Z,0.79
2023-03-21T12:59:17.649Z,0.77
2023-03-21T13:00:17.646Z,0.78
2023-03-21T13:01:17.698Z,0.76
2023-03-21T13:02:17.638Z,0.76
2023-03-21T13:03:19.600Z,0.75
2023-03-21T13:04:17.647Z,0.75
2023-03-21T13:05:16.616Z,0.76
2023-03-21T13:06:16.609Z,0.76
2023-03-21T13:07:16.589Z,0.75
2023-03-21T13:08:17.596Z,0.75
2023-03-21T13:09:21.262Z,0.74
2023-03-21T13:10:17.570Z,0.74
2023-03-21T13:11:17.626Z,0.74
2023-03-21T13:12:17.565Z,0.74
2023-03-21T13:13:17.540Z,0.73
2023-03-21T13:14:17.666Z,0.73
2023-03-21T13:15:23.771Z,0.71
2023-03-21T13:16:17.557Z,0.71
2023-03-21T13:17:16.524Z,0.71
2023-03-21T13:18:17.529Z,0.72
2023-03-21T13:19:16.503Z,0.72
2023-03-21T13:20:17.500Z,0.72
2023-03-21T13:21:17.492Z,0.72
2023-03-21T13:23:17.534Z,0.71
2023-03-21T13:24:17.478Z,0.71
2023-03-21T13:25:17.474Z,0.71
2023-03-21T13:26:17.441Z,0.71
2023-03-21T13:27:17.443Z,0.71
2023-03-21T13:30:16.637Z,0.71
2023-03-21T13:31:17.771Z,0.72
2023-03-21T13:32:17.655Z,0.71
2023-03-21T13:34:17.680Z,0.71
2023-03-21T13:35:17.692Z,0.70
2023-03-21T13:36:16.811Z,0.70
2023-03-21T13:37:17.778Z,0.75
2023-03-21T13:38:17.803Z,0.80
2023-03-21T13:39:17.812Z,0.79
2023-03-21T13:40:17.829Z,0.79
2023-03-21T13:41:17.925Z,0.79
2023-03-21T13:42:17.897Z,0.83
2023-03-21T13:43:25.428Z,0.84
2023-03-21T13:44:17.894Z,0.85
2023-03-21T13:45:17.891Z,0.86
2023-03-21T13:46:18.107Z,0.88
2023-03-21T13:47:17.895Z,0.92
2023-03-21T13:50:17.897Z,0.99
2023-03-21T13:51:17.853Z,1.00
2023-03-21T13:52:16.860Z,1.03
2023-03-21T13:53:17.845Z,1.03
2023-03-21T13:54:17.826Z,1.07
2023-03-21T13:55:17.820Z,1.07
2023-03-21T13:56:17.832Z,1.06
2023-03-21T13:57:17.820Z,1.05
2023-03-21T13:58:17.808Z,1.05
2023-03-21T14:00:17.799Z,1.10
2023-03-21T14:01:16.904Z,1.10
2023-03-21T14:02:17.908Z,1.09
2023-03-21T14:03:17.781Z,1.10
2023-03-21T14:04:17.773Z,1.09
2023-03-21T14:05:17.847Z,1.10
2023-03-21T14:06:17.747Z,1.08
2023-03-21T14:08:24.865Z,1.14
2023-03-21T14:14:17.685Z,1.19
2023-03-21T14:15:17.670Z,1.19
2023-03-21T14:16:16.680Z,1.22
2023-03-21T14:17:17.659Z,1.23
2023-03-21T14:18:27.869Z,1.23
2023-03-21T14:19:17.656Z,1.23
2023-03-21T14:20:17.668Z,1.24
2023-03-21T14:21:23.347Z,1.22
2023-03-21T14:22:17.626Z,1.24
2023-03-21T14:23:16.626Z,1.24
2023-03-21T14:24:17.620Z,1.25
2023-03-21T14:25:17.615Z,1.24
2023-03-21T14:26:17.610Z,1.29
2023-03-21T14:27:17.597Z,1.31
2023-03-21T14:28:16.591Z,1.31
2023-03-21T14:29:25.767Z,1.34
2023-03-21T14:30:17.584Z,1.34
2023-03-21T14:31:17.666Z,1.32
2023-03-21T14:32:17.563Z,1.35
2023-03-21T14:33:17.558Z,1.33
2023-03-21T14:34:16.659Z,1.31
2023-03-21T14:35:16.578Z,1.30
2023-03-21T14:36:17.615Z,1.30
2023-03-21T14:37:17.537Z,1.32
2023-03-21T14:38:16.539Z,1.36
2023-03-21T14:39:17.510Z,1.33
2023-03-21T14:40:17.504Z,1.33
2023-03-21T14:41:17.508Z,1.36
2023-03-21T14:42:17.508Z,1.34
2023-03-21T14:43:17.497Z,1.34
2023-03-21T14:44:17.544Z,1.37
2023-03-21T14:45:17.507Z,1.37
2023-03-21T14:46:17.510Z,1.45
2023-03-21T14:47:17.458Z,1.42
2023-03-21T14:48:17.599Z,1.42
2023-03-21T14:49:17.571Z,1.39
2023-03-21T14:50:17.803Z,1.43
2023-03-21T14:51:16.654Z,1.39
2023-03-21T14:52:17.696Z,1.37
2023-03-21T14:53:17.725Z,1.37
2023-03-21T14:54:17.798Z,1.33
2023-03-21T14:55:17.807Z,1.33
2023-03-21T14:56:17.853Z,1.35
2023-03-21T14:57:16.918Z,1.34
2023-03-21T14:58:16.936Z,1.33
2023-03-21T14:59:17.953Z,1.32
2023-03-21T15:00:17.950Z,1.34
2023-03-21T15:01:16.991Z,1.35
2023-03-21T15:02:18.034Z,1.35
2023-03-21T15:03:17.960Z,1.37
2023-03-21T15:04:17.949Z,1.36
2023-03-21T15:05:18.023Z,1.42
2023-03-21T15:06:18.088Z,1.49
2023-03-21T15:07:17.965Z,1.54
2023-03-21T15:08:18.033Z,1.52
2023-03-21T15:09:18.089Z,1.52
2023-03-21T15:10:18.201Z,1.49
2023-03-21T15:11:18.222Z,1.49
2023-03-21T15:12:18.263Z,1.48
2023-03-21T15:13:18.344Z,1.49
2023-03-21T15:14:18.373Z,1.45
2023-03-21T15:15:18.424Z,1.45
2023-03-21T15:16:18.479Z,1.43
2023-03-21T15:17:18.451Z,1.43
2023-03-21T15:18:18.464Z,1.43
2023-03-21T15:19:18.452Z,1.42
2023-03-21T15:20:18.466Z,1.39
2023-03-21T15:21:18.459Z,1.38
2023-03-21T15:22:18.585Z,1.33
2023-03-21T15:23:18.455Z,1.36
2023-03-21T15:24:18.445Z,1.35
2023-03-21T15:25:18.440Z,1.34
2023-03-21T15:26:18.435Z,1.33
2023-03-21T15:27:18.439Z,1.28
2023-03-21T15:28:18.435Z,1.22
2023-03-21T15:29:18.449Z,1.11
2023-03-21T15:30:18.455Z,1.06
2023-03-21T15:31:18.546Z,1.06
2023-03-21T15:32:18.468Z,0.97
2023-03-21T15:33:17.479Z,0.95
2023-03-21T15:34:18.489Z,0.89
2023-03-21T15:35:18.535Z,0.97
2023-03-21T15:36:18.554Z,0.96
2023-03-21T15:37:18.543Z,0.97
2023-03-21T15:38:18.666Z,0.96
2023-03-21T15:39:18.564Z,0.97
2023-03-21T15:40:18.611Z,0.98
2023-03-21T15:41:17.597Z,0.97
2023-03-21T15:42:17.623Z,0.95
2023-03-21T15:43:17.653Z,0.92
2023-03-21T15:44:18.649Z,0.89
2023-03-21T15:45:17.680Z,0.96
2023-03-21T15:46:17.774Z,1.05
2023-03-21T15:47:18.717Z,1.17
2023-03-21T15:48:18.789Z,1.39
2023-03-21T15:49:18.761Z,1.51
2023-03-21T15:50:18.785Z,1.69
2023-03-21T15:51:17.823Z,2.11
2023-03-21T15:52:18.856Z,2.43
2023-03-21T15:53:18.896Z,2.89
2023-03-21T15:54:19.050Z,3.48
2023-03-21T15:55:18.953Z,3.32
2023-03-21T15:56:18.986Z,3.35
2023-03-21T15:57:19.025Z,3.37
2023-03-21T15:58:19.053Z,3.32
2023-03-21T15:59:19.084Z,3.44
2023-03-21T16:00:19.120Z,3.97
2023-03-21T16:01:19.202Z,4.10
2023-03-21T16:02:19.237Z,3.88
2023-03-21T16:03:19.302Z,3.99
2023-03-21T16:04:19.262Z,3.83
2023-03-21T16:05:19.309Z,3.77
2023-03-21T16:06:19.350Z,3.82
2023-03-21T16:07:19.429Z,3.85
2023-03-21T16:08:19.427Z,3.80
2023-03-21T16:09:19.468Z,3.87
2023-03-21T16:10:18.646Z,3.85
2023-03-21T16:11:19.558Z,3.70
2023-03-21T16:12:19.618Z,3.65
2023-03-21T16:13:18.710Z,3.58
2023-03-21T16:14:19.695Z,3.61
2023-03-21T16:15:19.850Z,3.56
2023-03-21T16:16:19.946Z,3.52
2023-03-21T16:17:18.840Z,3.48
2023-03-21T16:18:19.893Z,3.44
2023-03-21T16:19:19.951Z,3.36
2023-03-21T16:20:20.004Z,3.31
2023-03-21T16:21:20.077Z,3.31
2023-03-21T16:22:20.113Z,3.23
2023-03-21T16:23:20.165Z,3.28
2023-03-21T16:24:20.233Z,3.17
2023-03-21T16:25:20.275Z,3.13
2023-03-21T16:26:20.365Z,3.18
2023-03-21T16:27:19.388Z,3.09
2023-03-21T16:28:20.415Z,3.07
2023-03-21T16:29:20.488Z,3.01
